Time;durP1;ratioP1;P1;durP2;ratioP2;P2;SDS_P1;SDS_P2;PMS_P1;PMS_P2;Temp;Humidity;BMP_temperature;BMP_pressure;BME280_temperature;BME280_humidity;BME280_pressure;Samples;Min_cycle;Max_cycle;Signal;HPM_P1;HPM_P2
2022/06/27 00:01:56;;;;;;;2.17;1.13;;;;;;;17.55;99.96;101593.00;5011858;28;20605;-30
2022/06/27 00:04:26;;;;;;;2.35;1.20;;;;;;;17.58;100.00;101590.69;5012227;28;20137;-27
2022/06/27 00:06:53;;;;;;;2.10;1.10;;;;;;;17.58;100.00;101595.13;5010969;28;20567;-28
2022/06/27 00:09:21;;;;;;;1.55;1.00;;;;;;;17.60;100.00;101596.78;5012382;28;20053;-26
2022/06/27 00:11:49;;;;;;;1.80;1.00;;;;;;;17.61;100.00;101590.81;5011811;28;20046;-33
2022/06/27 00:14:17;;;;;;;2.22;1.20;;;;;;;17.64;100.00;101594.97;5011431;28;20037;-37
2022/06/27 00:16:44;;;;;;;1.83;0.90;;;;;;;17.65;100.00;101586.22;5011635;28;20037;-31
2022/06/27 00:19:16;;;;;;;2.28;1.02;;;;;;;17.65;100.00;101585.38;5011868;28;20495;-29
2022/06/27 00:21:46;;;;;;;2.15;1.10;;;;;;;17.66;100.00;101576.59;5010961;28;20095;-30
2022/06/27 00:24:13;;;;;;;2.33;1.20;;;;;;;17.67;100.00;101575.44;5011733;28;20046;-27
2022/06/27 00:26:41;;;;;;;2.10;1.10;;;;;;;17.69;100.00;101580.75;5011826;28;20391;-29
2022/06/27 00:29:09;;;;;;;2.05;1.00;;;;;;;17.70;100.00;101583.25;5010907;28;20053;-27
2022/06/27 00:31:39;;;;;;;2.13;1.13;;;;;;;17.71;100.00;101586.91;5005836;28;20078;-28
2022/06/27 00:34:08;;;;;;;3.65;1.63;;;;;;;17.72;100.00;101585.75;5010805;28;20053;-26
2022/06/27 00:36:36;;;;;;;2.28;1.33;;;;;;;17.75;100.00;101594.38;5011100;28;20414;-29
2022/06/27 00:39:05;;;;;;;2.50;1.35;;;;;;;17.77;100.00;101588.41;5010419;28;20064;-35
2022/06/27 00:41:33;;;;;;;2.30;1.35;;;;;;;17.78;100.00;101593.72;5010959;28;20129;-32
2022/06/27 00:44:01;;;;;;;2.58;1.40;;;;;;;17.78;100.00;101601.38;5011281;28;20477;-27
2022/06/27 00:46:29;;;;;;;2.65;1.50;;;;;;;17.80;100.00;101604.66;5011254;28;20084;-28
2022/06/27 00:48:58;;;;;;;2.58;1.40;;;;;;;17.80;100.00;101594.19;5010479;28;20080;-36
2022/06/27 00:51:26;;;;;;;2.15;1.20;;;;;;;17.80;100.00;101594.19;5011466;28;20129;-29
2022/06/27 00:53:55;;;;;;;3.28;1.50;;;;;;;17.81;100.00;101595.03;5011036;28;20088;-30
2022/06/27 00:56:24;;;;;;;2.33;1.30;;;;;;;17.80;100.00;101594.19;5010801;28;20071;-28
2022/06/27 00:58:52;;;;;;;2.50;1.30;;;;;;;17.81;100.00;101595.03;5009306;28;20054;-30
2022/06/27 01:01:20;;;;;;;2.10;1.42;;;;;;;17.82;100.00;101602.34;5011651;28;20072;-30
2022/06/27 01:03:48;;;;;;;2.47;1.33;;;;;;;17.83;100.00;101604.00;5008984;28;20050;-30
2022/06/27 01:06:16;;;;;;;2.83;1.35;;;;;;;17.83;100.00;101596.38;5009896;28;20668;-30
2022/06/27 01:08:43;;;;;;;3.17;1.50;;;;;;;17.85;100.00;101596.88;5010814;28;20450;-28
2022/06/27 01:11:13;;;;;;;2.55;1.20;;;;;;;17.84;100.00;101600.84;5010458;28;20502;-28
2022/06/27 01:13:42;;;;;;;3.80;1.58;;;;;;;17.84;100.00;101606.50;5010971;28;20041;-28
2022/06/27 01:16:10;;;;;;;2.85;1.20;;;;;;;17.85;100.00;101612.97;5011162;28;20434;-29
2022/06/27 01:18:38;;;;;;;2.13;1.17;;;;;;;17.86;100.00;101603.34;5010235;28;20077;-29
2022/06/27 01:21:07;;;;;;;2.53;1.42;;;;;;;17.89;100.00;101616.81;5011063;28;20055;-28
2022/06/27 01:23:37;;;;;;;2.80;1.38;;;;;;;17.89;100.00;101620.47;5009971;28;20113;-33
2022/06/27 01:26:05;;;;;;;2.95;1.67;;;;;;;17.90;100.00;101626.94;5010074;28;20050;-28
2022/06/27 01:28:33;;;;;;;2.20;1.30;;;;;;;17.89;100.00;101616.81;5011220;28;20052;-33
2022/06/27 01:31:01;;;;;;;2.35;1.17;;;;;;;17.90;100.00;101615.66;5010454;28;20498;-28
2022/06/27 01:33:29;;;;;;;2.03;1.20;;;;;;;17.90;100.00;101615.66;5009623;28;20094;-33
2022/06/27 01:38:42;;;;;;;3.90;1.70;;;;;;;17.92;100.00;101615.31;5024299;28;20046;-28
2022/06/27 01:41:10;;;;;;;3.13;1.70;;;;;;;17.92;100.00;101612.50;4996968;28;20141;-29
2022/06/27 01:43:38;;;;;;;3.30;2.03;;;;;;;17.93;100.00;101609.34;5009457;28;20054;-35
2022/06/27 01:46:10;;;;;;;5.45;2.42;;;;;;;17.93;100.00;101597.22;5008642;28;20050;-30
2022/06/27 01:48:39;;;;;;;3.47;1.92;;;;;;;17.93;100.00;101600.06;5007001;28;20050;-31
2022/06/27 01:51:09;;;;;;;2.58;1.67;;;;;;;17.92;100.00;101595.56;5009380;28;20108;-32
2022/06/27 01:53:38;;;;;;;3.10;1.80;;;;;;;17.91;100.00;101589.09;5010229;28;20049;-27
2022/06/27 01:56:07;;;;;;;3.30;1.83;;;;;;;17.91;100.00;101600.38;5009063;28;20073;-33
2022/06/27 01:58:38;;;;;;;4.57;2.25;;;;;;;17.89;100.00;101588.56;5009447;28;20497;-33
2022/06/27 02:01:06;;;;;;;2.53;1.73;;;;;;;17.88;100.00;101582.09;5008372;28;20045;-34
2022/06/27 02:03:35;;;;;;;5.95;2.55;;;;;;;17.88;100.00;101576.44;5012994;28;20050;-29
2022/06/27 02:06:05;;;;;;;3.65;2.13;;;;;;;17.87;100.00;101579.59;5012068;28;20896;-33
2022/06/27 02:08:33;;;;;;;3.25;2.08;;;;;;;17.84;100.00;101589.56;5014446;28;20460;-36
2022/06/27 02:11:01;;;;;;;5.15;2.45;;;;;;;17.83;100.00;101587.91;5013910;28;20100;-27
2022/06/27 02:13:31;;;;;;;3.90;1.98;;;;;;;17.83;100.00;101587.06;5012385;28;20096;-27
2022/06/27 02:16:03;;;;;;;4.68;2.13;;;;;;;17.82;100.00;101591.06;5013831;28;20073;-30
2022/06/27 02:18:31;;;;;;;4.05;2.10;;;;;;;17.78;100.00;101585.25;5013079;28;20054;-33
2022/06/27 02:21:00;;;;;;;2.90;1.48;;;;;;;17.78;100.00;101585.25;5006334;28;20140;-34
2022/06/27 02:23:28;;;;;;;2.83;1.88;;;;;;;17.76;100.00;101595.22;5014123;28;20495;-30
2022/06/27 02:25:59;;;;;;;3.53;1.88;;;;;;;17.75;100.00;101585.09;5007773;28;20054;-30
2022/06/27 02:28:28;;;;;;;4.90;1.77;;;;;;;17.73;100.00;101584.59;5013164;28;20052;-31
2022/06/27 02:30:57;;;;;;;4.20;2.10;;;;;;;17.73;100.00;101590.22;5012474;28;20049;-33
2022/06/27 02:33:33;;;;;;;2.78;1.80;;;;;;;17.73;100.00;101595.88;5012619;28;20473;-28
2022/06/27 02:36:03;;;;;;;3.60;1.90;;;;;;;17.69;100.00;101592.88;5011556;28;20153;-32
2022/06/27 02:38:32;;;;;;;3.42;1.70;;;;;;;17.68;100.00;101593.19;5013738;28;20144;-28
2022/06/27 02:41:04;;;;;;;3.70;2.15;;;;;;;17.67;100.00;101592.38;5011533;28;20049;-38
2022/06/27 02:43:36;;;;;;;3.67;2.35;;;;;;;17.65;100.00;101586.22;5013824;28;20495;-28
2022/06/27 02:46:05;;;;;;;;;;;;;;;17.59;100.00;101587.50;5008181;28;20384;-29
2022/06/27 02:48:36;;;;;;;3.22;1.73;;;;;;;17.54;100.00;101582.84;5014206;28;19928;-28
2022/06/27 02:51:06;;;;;;;2.53;1.40;;;;;;;17.58;100.00;101580.22;5013798;28;20041;-34
2022/06/27 02:53:45;;;;;;;2.83;1.67;;;;;;;17.58;100.00;101572.56;5012263;28;20049;-28
2022/06/27 02:56:31;;;;;;;3.55;1.45;;;;;;;17.56;100.00;101566.44;5007395;28;20132;-34
2022/06/27 02:59:04;;;;;;;2.38;1.40;;;;;;;17.55;100.00;101561.94;5004724;28;20066;-33
2022/06/27 03:01:35;;;;;;;2.58;1.23;;;;;;;17.53;100.00;101554.97;4999056;28;20038;-32
2022/06/27 03:04:03;;;;;;;2.38;1.25;;;;;;;17.50;100.00;101561.25;4997858;28;20468;-35
2022/06/27 03:06:33;;;;;;;3.78;1.70;;;;;;;17.49;100.00;101556.78;5011999;28;20069;-29
2022/06/27 03:09:01;;;;;;;2.55;1.85;;;;;;;17.47;100.00;101565.56;4998877;28;20046;-32
2022/06/27 03:11:29;;;;;;;3.55;1.92;;;;;;;17.46;100.00;101563.06;5013009;28;20328;-28
2022/06/27 03:13:57;;;;;;;2.60;1.80;;;;;;;17.42;100.00;101560.06;5004646;28;20042;-31
2022/06/27 03:16:25;;;;;;;4.28;2.55;;;;;;;17.39;100.00;101557.91;5012145;28;20818;-29
2022/06/27 03:18:55;;;;;;;4.45;2.75;;;;;;;17.37;100.00;101563.06;5010734;28;20049;-32
2022/06/27 03:21:41;;;;;;;4.47;2.40;;;;;;;17.32;100.00;101568.03;5012849;28;20056;-29
2022/06/27 03:24:10;;;;;;;2.97;2.42;;;;;;;17.30;100.00;101567.53;5010637;28;20128;-34
2022/06/27 03:26:41;;;;;;;2.70;1.95;;;;;;;17.27;100.00;101563.34;5012948;28;20140;-36
2022/06/27 03:29:10;;;;;;;3.17;1.90;;;;;;;17.23;100.00;101545.41;5011250;28;20050;-29
2022/06/27 03:31:40;;;;;;;2.30;1.30;;;;;;;17.19;100.00;101533.13;5012338;28;20034;-36
2022/06/27 03:34:12;;;;;;;2.15;1.50;;;;;;;17.14;100.00;101530.47;5000426;28;20503;-28
2022/06/27 03:36:53;;;;;;;2.50;1.35;;;;;;;17.05;100.00;101532.44;5009836;28;20053;-28
2022/06/27 03:39:22;;;;;;;2.85;1.40;;;;;;;16.99;100.00;101525.25;5011545;28;20049;-28
2022/06/27 03:41:51;;;;;;;2.78;1.58;;;;;;;16.94;100.00;101523.44;5011601;28;20053;-28
2022/06/27 03:44:19;;;;;;;1.85;1.20;;;;;;;16.90;100.00;101518.78;5021133;28;20042;-27
2022/06/27 03:46:51;;;;;;;1.95;1.10;;;;;;;16.85;100.00;101522.56;5008127;28;20042;-30
2022/06/27 03:52:14;;;;;;;2.40;1.40;;;;;;;16.72;100.00;101524.34;5012156;28;20034;-36
2022/06/27 03:54:42;;;;;;;3.47;1.33;;;;;;;16.70;100.00;101521.03;5022633;28;20489;-27
2022/06/27 03:57:09;;;;;;;2.65;1.20;;;;;;;16.66;100.00;101514.38;5011432;28;20475;-28
2022/06/27 03:59:37;;;;;;;2.55;1.40;;;;;;;16.63;100.00;101514.13;5009925;28;20153;-30
2022/06/27 04:02:06;;;;;;;2.22;1.40;;;;;;;16.60;100.00;101518.44;5007592;28;20411;-27
2022/06/27 04:04:51;;;;;;;2.25;1.30;;;;;;;16.54;100.00;101516.94;5006176;28;20056;-34
2022/06/27 04:07:19;;;;;;;2.75;1.48;;;;;;;16.49;100.00;101526.34;5010519;28;20046;-34
2022/06/27 04:09:47;;;;;;;2.90;1.63;;;;;;;16.46;100.00;101528.97;5022104;28;20411;-28
2022/06/27 04:12:16;;;;;;;2.25;1.38;;;;;;;16.42;100.00;101525.97;5010788;28;20071;-32
2022/06/27 04:15:07;;;;;;;2.13;1.30;;;;;;;16.39;100.00;101534.22;5011480;28;20083;-29
2022/06/27 04:17:53;;;;;;;3.13;2.50;;;;;;;16.37;100.00;101545.00;5012265;28;20573;-32
2022/06/27 04:20:42;;;;;;;5.10;2.50;;;;;;;16.36;100.00;101524.47;5011022;28;20069;-35
2022/06/27 04:23:10;;;;;;;3.25;2.03;;;;;;;16.36;100.00;101534.91;5011030;28;20667;-32
2022/06/27 04:26:06;;;;;;;4.80;2.60;;;;;;;16.33;100.00;101519.47;5011247;28;20123;-35
2022/06/27 04:28:35;;;;;;;4.30;2.30;;;;;;;16.34;100.00;101528.75;5009780;28;20054;-29
2022/06/27 04:31:03;;;;;;;2.15;1.70;;;;;;;16.32;100.00;101522.59;5001517;28;20499;-27
2022/06/27 04:33:32;;;;;;;3.10;1.80;;;;;;;16.31;100.00;101524.59;4990147;28;20054;-29
2022/06/27 04:36:07;;;;;;;3.10;1.90;;;;;;;16.30;100.00;101527.72;5008696;28;20050;-32
2022/06/27 04:38:38;;;;;;;2.60;1.88;;;;;;;16.28;100.00;101535.66;5016274;28;20042;-33
2022/06/27 04:41:26;;;;;;;2.40;1.58;;;;;;;16.25;100.00;101534.31;5010835;28;20169;-26
2022/06/27 04:43:54;;;;;;;3.65;1.90;;;;;;;16.25;100.00;101525.84;5006792;28;20053;-28
2022/06/27 04:46:22;;;;;;;3.10;2.30;;;;;;;16.28;100.00;101530.03;5006726;28;20551;-28
2022/06/27 04:49:21;;;;;;;6.07;3.45;;;;;;;16.29;100.00;101535.34;4986640;28;20395;-28
2022/06/27 04:51:52;;;;;;;6.03;2.90;;;;;;;16.33;100.00;101538.34;5003920;28;20046;-35
2022/06/27 04:54:22;;;;;;;5.85;3.70;;;;;;;16.35;100.00;101542.50;5006806;28;20462;-29
2022/06/27 04:56:49;;;;;;;5.68;3.20;;;;;;;16.38;100.00;101539.06;5006730;28;20411;-28
2022/06/27 04:59:18;;;;;;;4.55;3.13;;;;;;;16.45;100.00;101544.22;5011473;28;20070;-33
2022/06/27 05:01:50;;;;;;;6.40;4.07;;;;;;;16.49;100.00;101546.06;5009054;28;20129;-28
2022/06/27 05:04:21;;;;;;;5.45;4.18;;;;;;;16.56;100.00;101544.78;5011343;28;20347;-35
2022/06/27 05:06:51;;;;;;;5.97;3.90;;;;;;;16.63;100.00;101551.63;5000741;28;20125;-28
2022/06/27 05:09:20;;;;;;;5.78;4.40;;;;;;;16.69;100.00;101541.91;5001193;28;20077;-29
2022/06/27 05:11:50;;;;;;;5.07;3.97;;;;;;;16.77;100.00;101532.66;5009454;28;20049;-29
2022/06/27 05:14:18;;;;;;;6.90;3.90;;;;;;;16.86;100.00;101515.78;5002199;28;20459;-31
2022/06/27 05:16:53;;;;;;;5.63;3.53;;;;;;;16.94;100.00;101512.16;4994558;28;20142;-30
2022/06/27 05:19:26;;;;;;;6.05;4.10;;;;;;;17.06;100.00;101494.59;5009815;28;20062;-28
2022/06/27 05:21:55;;;;;;;5.85;4.07;;;;;;;17.18;100.00;101492.00;5009458;28;20046;-30
2022/06/27 05:24:25;;;;;;;5.03;2.95;;;;;;;17.28;100.00;101491.69;5009042;28;20072;-29
2022/06/27 05:26:53;;;;;;;5.85;3.40;;;;;;;17.41;100.00;101490.69;5023685;28;20392;-32
2022/06/27 05:29:21;;;;;;;3.80;2.90;;;;;;;17.52;100.00;101477.94;5009613;28;20038;-30
2022/06/27 05:31:49;;;;;;;4.40;3.47;;;;;;;17.62;100.00;101473.13;5009165;28;20454;-28
2022/06/27 05:34:20;;;;;;;5.05;3.00;;;;;;;17.71;100.00;101471.16;5022045;28;20468;-30
2022/06/27 05:36:48;;;;;;;6.65;3.78;;;;;;;17.82;100.00;101481.78;4996530;28;20048;-28
2022/06/27 05:39:18;;;;;;;3.60;2.60;;;;;;;17.95;100.00;101487.59;5012999;28;20100;-35
2022/06/27 05:41:46;;;;;;;4.65;2.83;;;;;;;18.04;100.00;101497.69;5013532;28;20050;-34
2022/06/27 05:44:20;;;;;;;3.40;2.30;;;;;;;18.12;100.00;101505.34;5013003;28;20061;-32
2022/06/27 05:46:48;;;;;;;4.40;2.25;;;;;;;18.23;100.00;101514.28;5014927;28;20506;-29
2022/06/27 05:49:44;;;;;;;6.00;2.40;;;;;;;18.35;100.00;101519.28;5025326;28;20634;-28
2022/06/27 05:52:13;;;;;;;5.70;3.30;;;;;;;18.44;100.00;101528.53;5027764;28;20049;-31
2022/06/27 05:54:42;;;;;;;4.25;2.40;;;;;;;18.53;100.00;101543.50;5014388;28;20050;-31
2022/06/27 05:57:11;;;;;;;5.28;2.97;;;;;;;18.66;100.00;101538.81;5013423;28;20123;-28
2022/06/27 05:59:39;;;;;;;5.45;3.30;;;;;;;18.73;100.00;101533.50;5023205;28;20482;-29
2022/06/27 06:02:07;;;;;;;5.15;3.13;;;;;;;18.76;100.00;101525.16;5011670;28;20050;-34
2022/06/27 06:04:39;;;;;;;4.15;2.45;;;;;;;18.80;100.00;101526.13;5004818;28;20042;-29
2022/06/27 06:07:11;;;;;;;3.40;2.47;;;;;;;18.89;100.00;101529.75;5009572;28;20054;-34
2022/06/27 06:09:39;;;;;;;4.97;2.35;;;;;;;18.96;100.00;101522.75;5013446;28;20045;-32
2022/06/27 06:12:09;;;;;;;6.28;3.80;;;;;;;19.00;100.00;101530.19;5009294;28;20454;-27
2022/06/27 06:14:44;;;;;;;3.70;3.08;;;;;;;19.02;100.00;101538.34;5012647;28;20066;-37
2022/06/27 06:17:12;;;;;;;4.80;2.65;;;;;;;19.05;100.00;101543.31;5014270;28;20053;-36
2022/06/27 06:19:40;;;;;;;5.07;3.30;;;;;;;19.08;100.00;101545.47;5013099;28;20048;-28
2022/06/27 06:22:08;;;;;;;4.30;2.95;;;;;;;19.11;100.00;101542.81;5009585;28;20134;-30
2022/06/27 06:24:36;;;;;;;5.45;2.63;;;;;;;19.14;100.00;101546.97;5008884;28;20165;-28
2022/06/27 06:27:11;;;;;;;3.65;2.38;;;;;;;19.15;100.00;101562.75;5009063;28;20385;-29
2022/06/27 06:29:40;;;;;;;5.90;3.85;;;;;;;19.18;100.00;101567.75;5007781;28;20096;-28
2022/06/27 06:32:10;;;;;;;4.28;3.00;;;;;;;19.20;100.00;101579.53;5012675;28;20069;-27
2022/06/27 06:34:41;;;;;;;6.43;2.53;;;;;;;19.24;100.00;101581.34;5010154;28;20052;-29
2022/06/27 06:37:10;;;;;;;4.40;2.45;;;;;;;19.31;100.00;101575.16;5021041;28;20057;-34
2022/06/27 06:39:42;;;;;;;3.75;2.42;;;;;;;19.39;100.00;101564.94;5002511;28;20034;-33
2022/06/27 06:42:12;;;;;;;5.38;2.47;;;;;;;19.50;100.00;101574.75;5000290;28;20060;-37
2022/06/27 06:44:58;;;;;;;3.92;2.58;;;;;;;19.59;100.00;101572.69;5012652;28;20041;-28
2022/06/27 06:47:35;;;;;;;4.78;2.70;;;;;;;19.64;100.00;101571.66;5010609;28;20132;-36
2022/06/27 06:50:10;;;;;;;5.63;3.35;;;;;;;19.71;100.00;101586.94;5001921;28;20578;-29
2022/06/27 06:52:39;;;;;;;4.10;2.55;;;;;;;19.85;100.00;101603.66;5002956;28;20052;-29
2022/06/27 06:55:09;;;;;;;4.47;2.50;;;;;;;19.90;100.00;101603.47;5011452;28;20577;-29
2022/06/27 06:57:39;;;;;;;5.63;3.42;;;;;;;19.97;100.00;101592.44;5012370;28;20050;-30
2022/06/27 07:00:09;;;;;;;4.70;2.85;;;;;;;20.03;100.00;101596.69;5012014;28;20101;-29
2022/06/27 07:02:38;;;;;;;5.80;3.17;;;;;;;20.06;100.00;101604.50;5011778;28;20041;-37
2022/06/27 07:05:08;;;;;;;4.18;2.63;;;;;;;20.08;100.00;101605.00;5012109;28;20494;-32
2022/06/27 07:07:36;;;;;;;4.50;2.90;;;;;;;20.15;100.00;101608.13;5009244;28;20073;-31
2022/06/27 07:10:06;;;;;;;6.07;2.65;;;;;;;20.27;100.00;101608.16;5011329;28;20050;-31
2022/06/27 07:12:34;;;;;;;5.60;2.88;;;;;;;20.44;100.00;101606.38;5012119;28;20415;-29
2022/06/27 07:15:05;;;;;;;4.93;3.30;;;;;;;20.61;100.00;101597.69;5012042;28;20152;-37
2022/06/27 07:17:40;;;;;;;6.00;3.58;;;;;;;20.64;100.00;101600.66;5011282;28;20065;-31
2022/06/27 07:20:10;;;;;;;6.32;3.63;;;;;;;20.59;100.00;101606.53;5011949;28;20050;-28
2022/06/27 07:22:38;;;;;;;4.97;2.97;;;;;;;20.54;100.00;101594.63;5009516;28;20098;-28
2022/06/27 07:25:08;;;;;;;5.28;3.10;;;;;;;20.51;100.00;101589.63;5012028;28;20053;-28
2022/06/27 07:27:36;;;;;;;4.53;2.83;;;;;;;20.45;100.00;101574.84;5011935;28;20057;-30
2022/06/27 07:30:09;;;;;;;5.38;2.75;;;;;;;20.46;100.00;101565.16;4993472;28;20104;-30
2022/06/27 07:32:37;;;;;;;5.35;3.33;;;;;;;20.41;99.52;101556.88;5009115;28;20053;-28
2022/06/27 07:35:09;;;;;;;3.58;2.33;;;;;;;20.38;100.00;101560.41;5010601;28;20463;-30
2022/06/27 07:37:39;;;;;;;3.28;1.90;;;;;;;20.42;100.00;101550.00;5010980;28;20048;-33
2022/06/27 07:40:09;;;;;;;4.05;2.30;;;;;;;20.52;100.00;101540.25;5011689;28;20471;-28
2022/06/27 07:42:41;;;;;;;4.47;2.45;;;;;;;20.53;100.00;101539.06;5012095;28;20049;-32
2022/06/27 07:45:13;;;;;;;3.88;2.00;;;;;;;20.55;99.47;101536.72;5010972;28;20050;-33
2022/06/27 07:47:42;;;;;;;5.88;2.78;;;;;;;20.60;99.79;101550.66;5011155;28;20050;-30
2022/06/27 07:50:11;;;;;;;5.68;2.53;;;;;;;20.62;99.54;101551.97;5011396;28;20054;-30
2022/06/27 07:55:22;;;;;;;4.40;2.40;;;;;;;20.67;99.36;101552.94;5011237;28;20068;-31
2022/06/27 07:57:52;;;;;;;3.85;2.80;;;;;;;20.71;100.00;101540.53;5010202;28;20048;-29
2022/06/27 08:00:21;;;;;;;3.25;2.22;;;;;;;20.84;100.00;101559.22;5009960;28;20136;-29
2022/06/27 08:02:48;;;;;;;8.65;3.47;;;;;;;20.96;100.00;101556.44;5010921;28;20088;-28
2022/06/27 08:05:17;;;;;;;6.30;3.38;;;;;;;21.07;100.00;101544.59;5010518;28;20072;-35
2022/06/27 08:07:44;;;;;;;4.43;2.90;;;;;;;21.13;100.00;101552.53;5010486;28;20205;-31
2022/06/27 08:10:13;;;;;;;5.78;3.22;;;;;;;21.20;100.00;101554.78;5011851;28;20049;-29
2022/06/27 08:12:41;;;;;;;7.75;3.33;;;;;;;21.25;100.00;101563.09;5011297;28;20095;-28
2022/06/27 08:15:11;;;;;;;4.97;2.45;;;;;;;21.20;100.00;101569.81;5011839;28;20068;-34
2022/06/27 08:17:40;;;;;;;6.35;3.08;;;;;;;21.16;100.00;101574.53;5011827;28;20072;-32
2022/06/27 08:20:09;;;;;;;5.40;3.08;;;;;;;21.15;100.00;101578.56;5011221;28;20052;-30
2022/06/27 08:22:39;;;;;;;3.67;2.40;;;;;;;21.12;100.00;101584.94;5011079;28;20084;-30
2022/06/27 08:25:08;;;;;;;6.90;3.20;;;;;;;21.11;100.00;101585.28;5018612;28;20396;-33
2022/06/27 08:27:37;;;;;;;4.15;2.67;;;;;;;21.10;100.00;101594.97;4991782;28;20521;-28
2022/06/27 08:30:06;;;;;;;4.10;2.58;;;;;;;21.12;99.88;101593.44;4995126;28;20620;-30
2022/06/27 08:32:34;;;;;;;4.68;3.22;;;;;;;21.13;99.13;101605.63;5011204;28;20410;-32
2022/06/27 08:35:04;;;;;;;5.18;2.92;;;;;;;21.08;98.17;101608.69;5009801;28;20510;-35
2022/06/27 08:37:33;;;;;;;7.30;4.07;;;;;;;21.04;97.52;101616.25;5011404;28;20050;-29
2022/06/27 08:40:04;;;;;;;5.55;2.92;;;;;;;21.01;97.69;101614.94;5010880;28;20054;-35
2022/06/27 08:42:32;;;;;;;6.55;3.45;;;;;;;21.12;98.20;101615.31;5011719;28;20046;-33
2022/06/27 08:45:02;;;;;;;6.18;3.63;;;;;;;21.18;97.76;101603.38;5009683;28;20646;-30
2022/06/27 08:47:30;;;;;;;6.50;3.53;;;;;;;21.26;96.94;101610.16;5010562;28;20145;-31
2022/06/27 08:49:58;;;;;;;5.70;3.90;;;;;;;21.29;97.30;101593.25;5010289;28;20068;-32
2022/06/27 08:52:28;;;;;;;4.85;3.17;;;;;;;21.38;97.47;101596.00;5010957;28;20572;-34
2022/06/27 08:54:56;;;;;;;6.60;4.40;;;;;;;21.34;96.23;101597.88;5010421;28;20037;-34
2022/06/27 08:57:24;;;;;;;4.57;3.00;;;;;;;21.27;96.68;101589.09;5011436;28;20050;-34
2022/06/27 08:59:54;;;;;;;5.32;3.30;;;;;;;21.31;97.32;101590.91;5010531;28;20041;-30
2022/06/27 09:02:23;;;;;;;4.07;2.67;;;;;;;21.39;97.45;101597.63;5010774;28;20041;-30
2022/06/27 09:04:57;;;;;;;6.47;4.03;;;;;;;21.50;97.57;101595.97;5010218;28;20046;-31
2022/06/27 09:07:48;;;;;;;4.80;2.80;;;;;;;21.57;96.45;101604.75;5009306;28;20056;-34
2022/06/27 09:10:27;;;;;;;5.45;3.70;;;;;;;21.63;96.30;101614.66;5010817;28;20141;-31
2022/06/27 09:13:05;;;;;;;4.72;3.15;;;;;;;21.63;95.35;101619.50;5011068;28;20521;-36
2022/06/27 09:15:50;;;;;;;6.75;3.58;;;;;;;21.60;94.28;101626.72;5010141;28;20107;-29
2022/06/27 09:18:23;;;;;;;6.53;3.95;;;;;;;21.50;94.41;101627.22;5010816;28;20046;-33
2022/06/27 09:20:53;;;;;;;6.97;4.68;;;;;;;21.44;93.90;101637.16;5009283;28;20495;-31
2022/06/27 09:23:32;;;;;;;5.20;3.17;;;;;;;21.36;94.46;101640.94;5010642;28;20052;-31
2022/06/27 09:26:01;;;;;;;4.35;3.13;;;;;;;21.40;94.88;101632.53;5010881;28;20487;-31
2022/06/27 09:28:50;;;;;;;6.85;3.20;;;;;;;21.51;93.86;101633.72;5010558;28;20042;-32
2022/06/27 09:31:35;;;;;;;4.97;3.13;;;;;;;21.53;93.68;101631.38;5010436;28;20070;-35
2022/06/27 09:34:09;;;;;;;5.68;3.78;;;;;;;21.56;93.58;101630.66;5010968;28;20458;-30
2022/06/27 09:36:40;;;;;;;4.25;3.15;;;;;;;21.60;93.19;101623.88;5005857;28;20054;-28
2022/06/27 09:39:18;;;;;;;5.72;3.53;;;;;;;21.71;92.00;101631.94;5011020;28;20460;-28
2022/06/27 09:41:57;;;;;;;5.32;2.58;;;;;;;21.80;92.18;101632.63;5010197;28;20068;-36
2022/06/27 09:44:28;;;;;;;3.72;2.53;;;;;;;21.89;92.12;101630.50;5009734;28;20049;-30
2022/06/27 09:47:05;;;;;;;5.15;3.10;;;;;;;21.92;90.69;101629.78;5010625;28;20140;-30
2022/06/27 09:49:35;;;;;;;5.00;2.72;;;;;;;21.89;90.60;101633.34;5010182;28;20069;-29
2022/06/27 09:52:06;;;;;;;4.40;2.83;;;;;;;21.90;90.84;101632.16;5008857;28;20066;-30
2022/06/27 09:54:37;;;;;;;6.37;2.70;;;;;;;21.89;90.11;101633.34;5010908;28;20056;-29
2022/06/27 09:57:07;;;;;;;4.35;2.33;;;;;;;21.90;90.56;101635.00;5008065;28;20380;-31
2022/06/27 09:59:42;;;;;;;3.13;2.03;;;;;;;21.95;90.47;101623.41;5010354;28;20048;-29
2022/06/27 10:02:13;;;;;;;4.95;3.00;;;;;;;21.96;90.21;101620.19;5009949;28;20064;-31
2022/06/27 10:04:43;;;;;;;4.93;2.72;;;;;;;22.00;90.57;101626.81;5009344;28;20108;-32
2022/06/27 10:07:13;;;;;;;5.40;2.58;;;;;;;22.08;91.00;101627.91;5007908;28;20065;-28
2022/06/27 10:09:42;;;;;;;4.80;3.50;;;;;;;22.15;90.94;101625.28;5009385;28;20149;-33
2022/06/27 10:12:24;;;;;;;5.70;2.88;;;;;;;22.19;89.91;101631.88;5007863;28;20040;-30
2022/06/27 10:15:31;;;;;;;4.05;2.40;;;;;;;22.16;89.63;101646.00;5009399;28;20056;-29
2022/06/27 10:18:01;;;;;;;3.75;2.53;;;;;;;22.06;89.66;101650.16;5007921;28;20088;-33
2022/06/27 10:20:32;;;;;;;3.58;2.15;;;;;;;22.09;89.46;101652.28;5008818;28;20057;-35
2022/06/27 10:23:28;;;;;;;3.70;2.38;;;;;;;22.10;89.26;101651.09;5009230;28;20074;-31
2022/06/27 10:25:58;;;;;;;3.22;2.22;;;;;;;22.05;89.69;101659.88;4995084;28;20097;-29
2022/06/27 10:28:26;;;;;;;7.07;3.67;;;;;;;22.06;89.72;101661.53;5012436;28;20050;-31
2022/06/27 10:30:55;;;;;;;5.05;2.63;;;;;;;22.04;89.72;101655.38;5012723;28;20059;-33
2022/06/27 10:33:37;;;;;;;5.10;3.20;;;;;;;22.00;89.91;101651.59;5010947;28;20042;-31
2022/06/27 10:36:18;;;;;;;7.18;4.60;;;;;;;21.96;90.41;101657.16;5012694;28;20151;-30
2022/06/27 10:38:57;;;;;;;5.65;4.10;;;;;;;21.90;90.27;101657.75;5008660;28;20052;-31
2022/06/27 10:41:42;;;;;;;5.45;3.22;;;;;;;21.82;90.71;101656.66;4994182;28;20073;-30
2022/06/27 10:44:35;;;;;;;4.28;3.08;;;;;;;21.78;91.61;101667.09;5011503;28;20053;-32
2022/06/27 10:47:32;;;;;;;3.45;3.05;;;;;;;21.73;92.51;101667.34;5011492;28;20465;-28
2022/06/27 10:50:13;;;;;;;3.85;3.10;;;;;;;21.70;93.66;101655.84;5009853;28;20053;-35
2022/06/27 10:52:45;;;;;;;5.72;4.00;;;;;;;21.68;94.29;101656.22;5013427;28;20829;-37
2022/06/27 10:55:23;;;;;;;5.25;3.70;;;;;;;21.72;94.99;101656.34;5012970;28;20402;-32
2022/06/27 10:57:54;;;;;;;4.03;2.90;;;;;;;21.72;95.20;101656.34;5012724;28;20064;-29
2022/06/27 11:00:42;;;;;;;4.55;3.47;;;;;;;21.72;94.71;101657.16;5012693;28;20049;-29
2022/06/27 11:03:20;;;;;;;4.63;3.75;;;;;;;21.64;95.42;101656.09;5012448;28;20135;-30
2022/06/27 11:05:58;;;;;;;6.38;4.38;;;;;;;21.63;95.88;101654.44;5013369;28;20124;-35
2022/06/27 11:08:27;;;;;;;6.00;4.25;;;;;;;21.62;96.33;101649.09;5012350;28;20050;-33
2022/06/27 11:10:55;;;;;;;4.00;3.20;;;;;;;21.62;96.39;101649.09;5013173;28;20049;-35
2022/06/27 11:13:41;;;;;;;5.00;3.35;;;;;;;21.64;96.46;101650.41;5012728;28;20045;-29
2022/06/27 11:16:11;;;;;;;4.55;3.45;;;;;;;21.61;96.54;101653.94;5011601;28;20049;-30
2022/06/27 11:18:43;;;;;;;5.20;3.95;;;;;;;21.61;96.75;101650.28;5012703;28;20084;-29
2022/06/27 11:21:12;;;;;;;4.43;3.90;;;;;;;21.61;96.83;101656.78;5013169;28;20073;-33
2022/06/27 11:23:51;;;;;;;7.43;5.28;;;;;;;21.65;96.74;101671.13;5012353;28;20556;-29
2022/06/27 11:26:19;;;;;;;5.70;3.80;;;;;;;21.60;96.59;101657.97;5012943;28;20145;-28
2022/06/27 11:34:29;;;;;;;5.53;4.30;;;;;;;21.71;97.57;101635.63;5011924;28;20042;-35
2022/06/27 11:36:58;;;;;;;5.30;4.30;;;;;;;21.85;97.65;101641.75;5011491;28;20073;-36
2022/06/27 11:39:28;;;;;;;6.03;4.22;;;;;;;22.01;97.15;101639.03;5012646;28;20057;-29
2022/06/27 11:41:58;;;;;;;6.25;4.00;;;;;;;22.12;95.38;101642.22;5012509;28;20058;-31
2022/06/27 11:44:27;;;;;;;6.45;4.80;;;;;;;22.16;94.28;101638.31;5011601;28;20404;-30
2022/06/27 11:47:04;;;;;;;6.43;4.47;;;;;;;22.24;93.29;101636.50;5012687;28;20052;-30
2022/06/27 11:49:33;;;;;;;6.18;4.38;;;;;;;22.22;92.12;101642.53;5011093;28;20046;-33
2022/06/27 11:52:11;;;;;;;9.30;4.88;;;;;;;22.17;91.26;101639.97;5012722;28;20045;-31
2022/06/27 11:54:40;;;;;;;9.63;5.55;;;;;;;22.16;90.71;101637.47;5012495;28;20150;-31